createdAt,value
2022-08-16T00:00:22.277Z,3.17
2022-08-16T00:05:26.031Z,2.40
2022-08-16T00:10:33.308Z,2.95
2022-08-16T00:15:51.781Z,5.20
2022-08-16T00:20:56.440Z,8.00
2022-08-16T00:26:33.584Z,3.40
2022-08-16T00:31:24.210Z,3.53
2022-08-16T00:36:27.053Z,9.05
2022-08-16T00:41:30.918Z,11.20
2022-08-16T00:46:52.943Z,3.80
2022-08-16T00:52:30.273Z,3.47
2022-08-16T00:57:58.760Z,3.95
2022-08-16T01:02:53.736Z,4.57
2022-08-16T01:07:58.523Z,10.15
2022-08-16T01:13:07.985Z,8.80
2022-08-16T01:24:02.249Z,6.03
2022-08-16T01:29:10.982Z,6.55
2022-08-16T01:34:23.451Z,10.50
2022-08-16T01:39:29.438Z,6.43
2022-08-16T01:44:37.671Z,7.35
2022-08-16T01:50:41.026Z,5.75
2022-08-16T01:55:06.590Z,14.52
2022-08-16T02:00:19.352Z,8.48
2022-08-16T02:05:23.448Z,14.40
2022-08-16T02:10:26.841Z,7.60
2022-08-16T02:15:35.390Z,13.00
2022-08-16T02:20:46.792Z,7.75
2022-08-16T02:25:52.027Z,7.65
2022-08-16T02:30:59.953Z,12.18
2022-08-16T02:36:02.915Z,17.20
2022-08-16T02:41:07.352Z,11.30
2022-08-16T02:46:13.889Z,7.93
2022-08-16T02:51:18.171Z,11.07
2022-08-16T02:56:21.984Z,11.05
2022-08-16T03:01:36.493Z,17.75
2022-08-16T03:06:51.547Z,17.98
2022-08-16T03:12:11.734Z,11.82
2022-08-16T03:17:19.771Z,13.48
2022-08-16T03:22:31.189Z,6.63
2022-08-16T03:27:39.218Z,10.85
2022-08-16T03:32:51.510Z,13.93
2022-08-16T03:38:02.689Z,10.38
2022-08-16T03:43:20.667Z,12.77
2022-08-16T03:48:37.212Z,9.13
2022-08-16T03:54:01.016Z,16.88
2022-08-16T03:59:06.590Z,10.25
2022-08-16T04:04:32.662Z,6.40
2022-08-16T04:09:38.792Z,16.10
2022-08-16T04:14:46.691Z,7.55
2022-08-16T04:19:51.702Z,8.50
2022-08-16T04:24:59.665Z,12.55
2022-08-16T04:30:12.257Z,10.73
2022-08-16T04:35:35.983Z,12.80
2022-08-16T04:40:42.673Z,10.80
2022-08-16T04:45:47.519Z,12.63
2022-08-16T04:51:11.546Z,14.38
2022-08-16T04:56:22.308Z,13.50
2022-08-16T05:01:47.730Z,11.00
2022-08-16T05:06:51.782Z,7.93
2022-08-16T05:12:03.793Z,5.85
2022-08-16T05:17:08.174Z,6.90
2022-08-16T05:22:18.301Z,9.57
2022-08-16T05:27:27.296Z,8.55
2022-08-16T05:32:32.391Z,6.78
2022-08-16T05:37:40.423Z,14.38
2022-08-16T05:42:49.449Z,15.07
2022-08-16T05:48:00.364Z,9.75
2022-08-16T05:53:26.840Z,10.88
2022-08-16T05:58:50.192Z,13.45
2022-08-16T06:03:54.562Z,8.73
2022-08-16T06:09:05.228Z,9.85
2022-08-16T06:14:12.238Z,11.85
2022-08-16T06:19:18.570Z,10.80
2022-08-16T06:24:53.815Z,10.20
2022-08-16T06:29:55.413Z,5.93
2022-08-16T06:35:02.642Z,12.63
2022-08-16T06:40:12.673Z,10.70
2022-08-16T06:45:24.105Z,8.48
2022-08-16T06:50:52.029Z,19.55
2022-08-16T06:55:59.193Z,23.42
2022-08-16T07:01:09.897Z,17.00
2022-08-16T07:06:21.869Z,15.90
2022-08-16T07:11:45.756Z,11.32
2022-08-16T07:16:58.000Z,12.93
2022-08-16T07:22:03.730Z,8.73
2022-08-16T07:27:08.526Z,7.85
2022-08-16T07:32:19.156Z,8.18
2022-08-16T07:37:33.240Z,7.15
2022-08-16T07:42:50.380Z,7.05
2022-08-16T07:47:52.994Z,5.57
2022-08-16T07:52:55.894Z,4.30
2022-08-16T07:58:00.943Z,5.95
2022-08-16T08:03:10.750Z,2.65
2022-08-16T08:08:50.820Z,2.08
2022-08-16T08:13:42.194Z,2.55
2022-08-16T08:18:56.049Z,2.00
2022-08-16T08:24:05.345Z,2.35
2022-08-16T08:29:13.174Z,2.63
2022-08-16T08:34:17.781Z,1.60
2022-08-16T08:39:22.378Z,2.40
2022-08-16T08:44:28.387Z,5.13
2022-08-16T08:49:46.308Z,3.83
2022-08-16T08:54:50.867Z,1.10
2022-08-16T08:59:55.224Z,2.15
2022-08-16T09:04:59.463Z,1.65
2022-08-16T09:10:06.722Z,1.83
2022-08-16T09:15:23.862Z,1.98
2022-08-16T09:20:29.436Z,1.65
2022-08-16T09:25:35.286Z,2.05
2022-08-16T09:30:45.101Z,2.03
2022-08-16T09:35:53.181Z,3.75
2022-08-16T09:40:57.970Z,2.25
2022-08-16T09:46:03.573Z,1.65
2022-08-16T09:51:30.736Z,2.15
2022-08-16T09:56:52.182Z,3.80
2022-08-16T10:01:55.747Z,1.70
2022-08-16T10:12:24.596Z,1.07
2022-08-16T10:17:30.771Z,1.23
2022-08-16T10:22:33.331Z,0.52
2022-08-16T10:27:46.017Z,1.50
2022-08-16T10:32:52.552Z,1.30
2022-08-16T10:37:54.820Z,2.65
2022-08-16T10:42:59.164Z,3.45
2022-08-16T10:48:04.111Z,1.98
2022-08-16T10:53:07.541Z,5.10
2022-08-16T10:58:13.460Z,1.60
2022-08-16T11:08:48.846Z,2.35
2022-08-16T11:14:05.847Z,3.35
2022-08-16T11:19:13.219Z,2.15
2022-08-16T11:24:39.486Z,1.30
2022-08-16T11:29:38.597Z,1.52
2022-08-16T11:35:06.140Z,1.05
2022-08-16T11:40:05.584Z,2.47
2022-08-16T11:45:08.691Z,1.10
2022-08-16T11:50:11.446Z,0.55
2022-08-16T11:55:13.985Z,0.70
2022-08-16T12:00:34.240Z,0.80
2022-08-16T12:05:43.457Z,1.08
2022-08-16T12:10:46.699Z,1.15
2022-08-16T12:15:49.384Z,2.60
2022-08-16T12:20:55.276Z,5.13
2022-08-16T12:26:00.481Z,0.70
2022-08-16T12:31:08.501Z,0.50
2022-08-16T12:36:14.142Z,3.28
2022-08-16T12:41:25.151Z,0.30
2022-08-16T12:46:28.067Z,2.30
2022-08-16T12:51:58.796Z,0.25
2022-08-16T12:56:57.857Z,0.32
2022-08-16T13:02:00.854Z,0.70
2022-08-16T13:07:05.180Z,4.78
2022-08-16T13:12:49.426Z,7.65
2022-08-16T13:17:59.232Z,3.13
2022-08-16T13:23:17.079Z,2.75
2022-08-16T13:29:03.553Z,3.92
2022-08-16T13:34:42.743Z,9.10
2022-08-16T13:39:52.476Z,10.77
2022-08-16T13:45:17.346Z,6.78
2022-08-16T13:50:51.575Z,3.33
2022-08-16T13:56:11.981Z,6.28
2022-08-16T14:01:29.260Z,2.85
2022-08-16T14:06:34.345Z,2.92
2022-08-16T14:11:37.695Z,2.35
2022-08-16T14:16:39.983Z,4.82
2022-08-16T14:22:13.768Z,12.80
2022-08-16T14:27:13.264Z,9.43
2022-08-16T14:32:33.664Z,14.02
2022-08-16T14:37:43.224Z,9.93
2022-08-16T14:42:49.765Z,14.43
2022-08-16T14:47:57.305Z,23.95
2022-08-16T14:53:07.036Z,23.40
2022-08-16T14:58:19.263Z,24.45
2022-08-16T15:03:24.378Z,27.27
2022-08-16T15:08:36.836Z,42.67
2022-08-16T15:13:41.214Z,34.80
2022-08-16T15:18:46.604Z,29.80
2022-08-16T15:23:55.000Z,30.10
2022-08-16T15:29:02.370Z,21.80
2022-08-16T15:34:06.370Z,30.35
2022-08-16T15:39:31.702Z,34.05
2022-08-16T15:44:44.556Z,37.15
2022-08-16T15:49:56.427Z,29.30
2022-08-16T15:55:13.004Z,29.33
2022-08-16T16:00:29.808Z,40.00
2022-08-16T16:05:43.043Z,36.65
2022-08-16T16:10:54.099Z,30.92
2022-08-16T16:16:03.085Z,36.25
2022-08-16T16:21:12.131Z,34.20
2022-08-16T16:26:24.893Z,42.95
2022-08-16T16:31:36.045Z,53.07
2022-08-16T16:36:48.397Z,56.15
2022-08-16T16:41:52.863Z,56.37
2022-08-16T17:06:10.409Z,24.95
2022-08-16T17:11:41.564Z,21.58
2022-08-16T17:16:51.751Z,19.65
2022-08-16T17:21:58.979Z,27.58
2022-08-16T17:27:18.370Z,22.85
2022-08-16T17:32:50.797Z,21.00
2022-08-16T17:38:38.737Z,18.25
2022-08-16T17:44:23.030Z,20.30
2022-08-16T17:49:31.279Z,27.10
2022-08-16T17:54:36.427Z,17.02
2022-08-16T17:59:46.214Z,17.42
2022-08-16T18:05:13.285Z,21.77
2022-08-16T18:10:32.822Z,19.75
2022-08-16T18:15:45.317Z,28.30
2022-08-16T18:21:17.583Z,21.83
2022-08-16T18:26:48.472Z,25.13
2022-08-16T18:31:56.083Z,24.30
2022-08-16T18:37:11.616Z,19.15
2022-08-16T18:42:17.957Z,18.80
2022-08-16T18:47:38.187Z,24.50
2022-08-16T18:52:58.479Z,24.70
2022-08-16T18:58:03.747Z,30.05
2022-08-16T19:03:16.934Z,26.98
2022-08-16T19:08:28.130Z,20.52
2022-08-16T19:13:35.420Z,32.58
2022-08-16T19:24:06.367Z,50.90
2022-08-16T19:29:21.506Z,50.15
2022-08-16T19:34:31.323Z,52.33
2022-08-16T19:39:33.934Z,34.95
2022-08-16T19:44:36.168Z,83.68
2022-08-16T19:49:39.106Z,65.95
2022-08-16T19:54:41.906Z,75.88
2022-08-16T19:59:44.815Z,59.38
2022-08-16T20:04:47.554Z,74.60
2022-08-16T20:09:50.408Z,65.53
2022-08-16T20:14:52.852Z,47.53
2022-08-16T20:19:55.084Z,72.18
2022-08-16T20:24:59.580Z,70.28
2022-08-16T20:30:04.921Z,68.03
2022-08-16T20:35:11.542Z,45.80
2022-08-16T20:40:28.394Z,50.70
2022-08-16T20:45:38.778Z,42.17
2022-08-16T20:50:41.448Z,48.65
2022-08-16T20:55:45.644Z,36.75
2022-08-16T21:00:48.045Z,66.50
2022-08-16T21:05:50.461Z,49.15
2022-08-16T21:10:52.718Z,50.80
2022-08-16T21:15:55.167Z,76.57
2022-08-16T21:20:57.482Z,117.63
2022-08-16T21:25:59.978Z,107.32
2022-08-16T21:31:02.264Z,64.65
2022-08-16T21:36:05.359Z,43.17
2022-08-16T21:41:11.539Z,55.33
2022-08-16T21:46:14.875Z,69.13
2022-08-16T21:51:17.082Z,47.45
2022-08-16T21:56:19.474Z,49.30
2022-08-16T22:01:23.436Z,54.22
2022-08-16T22:06:25.965Z,63.92
2022-08-16T22:11:28.698Z,84.53
2022-08-16T22:16:33.957Z,84.00
2022-08-16T22:21:36.273Z,52.92
2022-08-16T22:26:43.144Z,88.40
2022-08-16T22:31:46.012Z,106.47
2022-08-16T22:36:49.762Z,130.05
2022-08-16T22:41:52.477Z,106.30
2022-08-16T22:46:55.055Z,102.03
2022-08-16T22:52:05.735Z,82.03
2022-08-16T22:57:09.371Z,112.15
2022-08-16T23:02:12.240Z,114.70
2022-08-16T23:07:14.448Z,128.32
2022-08-16T23:12:16.867Z,113.78
2022-08-16T23:17:31.289Z,132.38
2022-08-16T23:23:19.369Z,98.45
2022-08-16T23:28:12.549Z,91.78
2022-08-16T23:33:16.407Z,99.38
2022-08-16T23:38:38.930Z,152.43
2022-08-16T23:43:43.590Z,233.63
2022-08-16T23:49:58.302Z,191.00
2022-08-16T23:54:11.571Z,181.80
2022-08-16T23:59:13.889Z,139.13
